sensor_id;sensor_type;location;lat;lon;timestamp;P1;durP1;ratioP1;P2;durP2;ratioP2
83103;SDS011;72975;48.134;11.630;2024-03-17T02:09:56;4.40;;;1.90;;
83103;SDS011;72975;48.134;11.630;2024-03-17T02:14:08;4.32;;;2.25;;
83103;SDS011;72975;48.134;11.630;2024-03-17T02:18:31;4.22;;;2.00;;
83103;SDS011;72975;48.134;11.630;2024-03-17T02:43:42;3.80;;;2.20;;
83103;SDS011;72975;48.134;11.630;2024-03-17T02:52:07;3.50;;;2.10;;
83103;SDS011;72975;48.134;11.630;2024-03-17T02:59:25;4.60;;;1.92;;
83103;SDS011;72975;48.134;11.630;2024-03-17T03:10:28;3.88;;;2.10;;
83103;SDS011;72975;48.134;11.630;2024-03-17T03:32:28;6.22;;;2.72;;
83103;SDS011;72975;48.134;11.630;2024-03-17T03:55:39;6.63;;;2.55;;
83103;SDS011;72975;48.134;11.630;2024-03-17T04:19:40;5.60;;;2.75;;
83103;SDS011;72975;48.134;11.630;2024-03-17T04:40:35;4.28;;;2.03;;
83103;SDS011;72975;48.134;11.630;2024-03-17T04:44:37;4.28;;;2.20;;
83103;SDS011;72975;48.134;11.630;2024-03-17T05:14:35;4.30;;;2.50;;
83103;SDS011;72975;48.134;11.630;2024-03-17T06:23:26;7.43;;;2.42;;
83103;SDS011;72975;48.134;11.630;2024-03-17T06:35:58;5.05;;;2.70;;
83103;SDS011;72975;48.134;11.630;2024-03-17T07:44:14;7.90;;;3.08;;
83103;SDS011;72975;48.134;11.630;2024-03-17T07:50:56;5.07;;;2.72;;
83103;SDS011;72975;48.134;11.630;2024-03-17T07:53:53;5.93;;;2.58;;
83103;SDS011;72975;48.134;11.630;2024-03-17T07:56:29;4.70;;;2.58;;
83103;SDS011;72975;48.134;11.630;2024-03-17T07:58:56;5.18;;;2.72;;
83103;SDS011;72975;48.134;11.630;2024-03-17T08:01:23;4.88;;;2.60;;
83103;SDS011;72975;48.134;11.630;2024-03-17T08:03:49;4.45;;;2.25;;
83103;SDS011;72975;48.134;11.630;2024-03-17T08:06:21;4.30;;;2.13;;
83103;SDS011;72975;48.134;11.630;2024-03-17T08:08:48;4.38;;;2.28;;
83103;SDS011;72975;48.134;11.630;2024-03-17T08:11:14;4.20;;;2.20;;
83103;SDS011;72975;48.134;11.630;2024-03-17T08:13:41;4.95;;;2.25;;
83103;SDS011;72975;48.134;11.630;2024-03-17T08:16:09;4.70;;;2.35;;
83103;SDS011;72975;48.134;11.630;2024-03-17T08:18:35;4.32;;;2.28;;
83103;SDS011;72975;48.134;11.630;2024-03-17T08:21:03;4.18;;;2.55;;
83103;SDS011;72975;48.134;11.630;2024-03-17T08:23:34;4.47;;;2.55;;
83103;SDS011;72975;48.134;11.630;2024-03-17T08:26:21;4.80;;;2.30;;
83103;SDS011;72975;48.134;11.630;2024-03-17T08:29:07;4.70;;;2.28;;
83103;SDS011;72975;48.134;11.630;2024-03-17T08:31:34;4.68;;;2.50;;
83103;SDS011;72975;48.134;11.630;2024-03-17T08:34:02;3.92;;;2.15;;
83103;SDS011;72975;48.134;11.630;2024-03-17T08:36:29;3.47;;;1.67;;
83103;SDS011;72975;48.134;11.630;2024-03-17T08:38:56;4.13;;;2.25;;
83103;SDS011;72975;48.134;11.630;2024-03-17T08:41:26;4.22;;;2.67;;
83103;SDS011;72975;48.134;11.630;2024-03-17T08:44:03;5.35;;;2.30;;
83103;SDS011;72975;48.134;11.630;2024-03-17T08:46:34;3.90;;;2.05;;
83103;SDS011;72975;48.134;11.630;2024-03-17T08:49:00;5.28;;;1.92;;
83103;SDS011;72975;48.134;11.630;2024-03-17T08:51:27;5.43;;;1.92;;
83103;SDS011;72975;48.134;11.630;2024-03-17T08:53:54;3.60;;;1.92;;
83103;SDS011;72975;48.134;11.630;2024-03-17T08:56:22;3.30;;;1.73;;
83103;SDS011;72975;48.134;11.630;2024-03-17T08:58:49;3.05;;;1.63;;
83103;SDS011;72975;48.134;11.630;2024-03-17T09:01:17;3.67;;;1.95;;
83103;SDS011;72975;48.134;11.630;2024-03-17T09:03:46;3.33;;;1.63;;
83103;SDS011;72975;48.134;11.630;2024-03-17T09:06:15;3.58;;;1.98;;
83103;SDS011;72975;48.134;11.630;2024-03-17T09:08:42;3.22;;;1.73;;
83103;SDS011;72975;48.134;11.630;2024-03-17T09:11:11;3.90;;;1.83;;
83103;SDS011;72975;48.134;11.630;2024-03-17T09:13:39;2.90;;;1.40;;
83103;SDS011;72975;48.134;11.630;2024-03-17T09:16:08;2.85;;;1.40;;
83103;SDS011;72975;48.134;11.630;2024-03-17T09:18:41;2.90;;;1.40;;
83103;SDS011;72975;48.134;11.630;2024-03-17T09:21:09;4.20;;;2.63;;
83103;SDS011;72975;48.134;11.630;2024-03-17T09:23:39;3.08;;;1.30;;
83103;SDS011;72975;48.134;11.630;2024-03-17T09:26:13;2.95;;;1.50;;
83103;SDS011;72975;48.134;11.630;2024-03-17T09:28:42;3.70;;;1.30;;
83103;SDS011;72975;48.134;11.630;2024-03-17T09:31:09;2.88;;;1.38;;
83103;SDS011;72975;48.134;11.630;2024-03-17T09:33:37;3.63;;;1.50;;
83103;SDS011;72975;48.134;11.630;2024-03-17T09:36:07;3.58;;;1.55;;
83103;SDS011;72975;48.134;11.630;2024-03-17T09:38:36;2.88;;;1.33;;
83103;SDS011;72975;48.134;11.630;2024-03-17T09:41:05;2.40;;;1.10;;
83103;SDS011;72975;48.134;11.630;2024-03-17T09:43:33;3.03;;;1.60;;
83103;SDS011;72975;48.134;11.630;2024-03-17T09:46:04;3.45;;;1.40;;
83103;SDS011;72975;48.134;11.630;2024-03-17T09:48:35;3.95;;;1.40;;
83103;SDS011;72975;48.134;11.630;2024-03-17T09:51:02;5.20;;;1.50;;
83103;SDS011;72975;48.134;11.630;2024-03-17T09:53:38;6.75;;;2.67;;
83103;SDS011;72975;48.134;11.630;2024-03-17T09:58:47;3.40;;;1.30;;
83103;SDS011;72975;48.134;11.630;2024-03-17T10:01:23;5.05;;;1.42;;
83103;SDS011;72975;48.134;11.630;2024-03-17T10:04:11;3.50;;;1.35;;
83103;SDS011;72975;48.134;11.630;2024-03-17T10:06:44;2.85;;;1.33;;
83103;SDS011;72975;48.134;11.630;2024-03-17T10:13:01;2.97;;;1.30;;
83103;SDS011;72975;48.134;11.630;2024-03-17T10:15:48;2.50;;;1.00;;
83103;SDS011;72975;48.134;11.630;2024-03-17T10:18:44;4.72;;;1.30;;
83103;SDS011;72975;48.134;11.630;2024-03-17T10:21:25;3.20;;;1.48;;
83103;SDS011;72975;48.134;11.630;2024-03-17T10:24:08;4.03;;;1.60;;
83103;SDS011;72975;48.134;11.630;2024-03-17T10:26:47;3.78;;;1.30;;
83103;SDS011;72975;48.134;11.630;2024-03-17T10:29:27;3.33;;;1.40;;
83103;SDS011;72975;48.134;11.630;2024-03-17T10:32:14;3.28;;;1.27;;
83103;SDS011;72975;48.134;11.630;2024-03-17T10:34:52;4.88;;;1.77;;
83103;SDS011;72975;48.134;11.630;2024-03-17T10:37:28;3.97;;;1.85;;
83103;SDS011;72975;48.134;11.630;2024-03-17T10:39:55;3.97;;;1.70;;
83103;SDS011;72975;48.134;11.630;2024-03-17T10:42:40;6.25;;;1.95;;
83103;SDS011;72975;48.134;11.630;2024-03-17T10:45:18;4.80;;;1.90;;
83103;SDS011;72975;48.134;11.630;2024-03-17T10:47:51;3.88;;;1.42;;
83103;SDS011;72975;48.134;11.630;2024-03-17T10:50:38;3.08;;;1.17;;
83103;SDS011;72975;48.134;11.630;2024-03-17T10:53:20;3.08;;;1.42;;
83103;SDS011;72975;48.134;11.630;2024-03-17T10:56:08;2.83;;;1.23;;
83103;SDS011;72975;48.134;11.630;2024-03-17T10:59:00;3.15;;;1.27;;
83103;SDS011;72975;48.134;11.630;2024-03-17T11:01:38;5.22;;;1.50;;
83103;SDS011;72975;48.134;11.630;2024-03-17T11:04:57;4.28;;;1.27;;
83103;SDS011;72975;48.134;11.630;2024-03-17T11:07:52;3.15;;;1.25;;
83103;SDS011;72975;48.134;11.630;2024-03-17T11:10:41;3.95;;;1.35;;
83103;SDS011;72975;48.134;11.630;2024-03-17T11:13:29;3.05;;;1.20;;
83103;SDS011;72975;48.134;11.630;2024-03-17T11:16:02;3.95;;;1.27;;
83103;SDS011;72975;48.134;11.630;2024-03-17T11:18:45;2.63;;;1.10;;
83103;SDS011;72975;48.134;11.630;2024-03-17T11:21:26;3.55;;;1.10;;
83103;SDS011;72975;48.134;11.630;2024-03-17T11:24:36;3.75;;;1.10;;
83103;SDS011;72975;48.134;11.630;2024-03-17T11:33:52;3.40;;;1.00;;
83103;SDS011;72975;48.134;11.630;2024-03-17T11:36:36;2.85;;;0.95;;
83103;SDS011;72975;48.134;11.630;2024-03-17T11:39:16;4.22;;;1.10;;
83103;SDS011;72975;48.134;11.630;2024-03-17T11:42:10;2.67;;;0.93;;
83103;SDS011;72975;48.134;11.630;2024-03-17T11:44:58;2.03;;;0.80;;
83103;SDS011;72975;48.134;11.630;2024-03-17T11:47:41;4.18;;;1.50;;
83103;SDS011;72975;48.134;11.630;2024-03-17T11:50:12;2.95;;;1.30;;
83103;SDS011;72975;48.134;11.630;2024-03-17T11:52:46;3.55;;;1.40;;
83103;SDS011;72975;48.134;11.630;2024-03-17T11:55:26;3.78;;;1.10;;
83103;SDS011;72975;48.134;11.630;2024-03-17T11:58:06;1.92;;;0.90;;
83103;SDS011;72975;48.134;11.630;2024-03-17T12:00:50;3.90;;;1.40;;
83103;SDS011;72975;48.134;11.630;2024-03-17T12:03:26;3.97;;;1.23;;
83103;SDS011;72975;48.134;11.630;2024-03-17T12:05:56;2.70;;;0.98;;
83103;SDS011;72975;48.134;11.630;2024-03-17T12:08:31;4.15;;;1.08;;
83103;SDS011;72975;48.134;11.630;2024-03-17T12:11:01;3.78;;;1.15;;
83103;SDS011;72975;48.134;11.630;2024-03-17T12:13:46;3.45;;;1.10;;
83103;SDS011;72975;48.134;11.630;2024-03-17T12:16:25;3.10;;;1.00;;
83103;SDS011;72975;48.134;11.630;2024-03-17T12:18:53;3.35;;;1.00;;
83103;SDS011;72975;48.134;11.630;2024-03-17T12:21:28;3.92;;;1.20;;
83103;SDS011;72975;48.134;11.630;2024-03-17T12:24:11;3.78;;;1.08;;
83103;SDS011;72975;48.134;11.630;2024-03-17T12:26:51;10.38;;;4.68;;
83103;SDS011;72975;48.134;11.630;2024-03-17T12:29:36;3.88;;;0.82;;
83103;SDS011;72975;48.134;11.630;2024-03-17T12:32:11;2.97;;;1.10;;
83103;SDS011;72975;48.134;11.630;2024-03-17T12:37:35;2.75;;;1.00;;
83103;SDS011;72975;48.134;11.630;2024-03-17T12:40:06;3.53;;;1.10;;
83103;SDS011;72975;48.134;11.630;2024-03-17T12:43:03;3.50;;;1.00;;
83103;SDS011;72975;48.134;11.630;2024-03-17T12:45:39;4.45;;;1.15;;
83103;SDS011;72975;48.134;11.630;2024-03-17T12:48:12;3.78;;;0.90;;
83103;SDS011;72975;48.134;11.630;2024-03-17T12:50:48;6.10;;;1.35;;
83103;SDS011;72975;48.134;11.630;2024-03-17T12:53:22;2.97;;;1.38;;
83103;SDS011;72975;48.134;11.630;2024-03-17T12:55:57;3.85;;;1.13;;
83103;SDS011;72975;48.134;11.630;2024-03-17T12:58:46;6.05;;;1.60;;
83103;SDS011;72975;48.134;11.630;2024-03-17T13:02:00;5.03;;;1.23;;
83103;SDS011;72975;48.134;11.630;2024-03-17T13:04:33;4.30;;;1.10;;
83103;SDS011;72975;48.134;11.630;2024-03-17T13:07:12;3.25;;;1.20;;
83103;SDS011;72975;48.134;11.630;2024-03-17T13:10:00;4.07;;;1.38;;
83103;SDS011;72975;48.134;11.630;2024-03-17T13:13:04;2.58;;;1.02;;
83103;SDS011;72975;48.134;11.630;2024-03-17T13:15:56;4.30;;;1.10;;
83103;SDS011;72975;48.134;11.630;2024-03-17T13:18:34;4.43;;;1.17;;
83103;SDS011;72975;48.134;11.630;2024-03-17T13:21:24;4.95;;;1.30;;
83103;SDS011;72975;48.134;11.630;2024-03-17T13:24:18;4.28;;;1.05;;
83103;SDS011;72975;48.134;11.630;2024-03-17T13:27:18;3.30;;;1.15;;
83103;SDS011;72975;48.134;11.630;2024-03-17T13:30:06;3.35;;;1.35;;
83103;SDS011;72975;48.134;11.630;2024-03-17T13:32:48;4.05;;;1.20;;
83103;SDS011;72975;48.134;11.630;2024-03-17T13:35:26;4.45;;;1.73;;
83103;SDS011;72975;48.134;11.630;2024-03-17T13:38:05;3.70;;;1.40;;
83103;SDS011;72975;48.134;11.630;2024-03-17T13:41:00;2.97;;;1.20;;
83103;SDS011;72975;48.134;11.630;2024-03-17T13:43:36;3.47;;;1.13;;
83103;SDS011;72975;48.134;11.630;2024-03-17T13:46:37;4.45;;;1.20;;
83103;SDS011;72975;48.134;11.630;2024-03-17T13:49:09;2.47;;;1.13;;
83103;SDS011;72975;48.134;11.630;2024-03-17T13:51:36;3.13;;;1.23;;
83103;SDS011;72975;48.134;11.630;2024-03-17T13:54:03;5.35;;;1.23;;
83103;SDS011;72975;48.134;11.630;2024-03-17T13:56:29;2.72;;;1.10;;
83103;SDS011;72975;48.134;11.630;2024-03-17T13:58:56;4.30;;;1.35;;
83103;SDS011;72975;48.134;11.630;2024-03-17T14:01:25;6.15;;;1.13;;
83103;SDS011;72975;48.134;11.630;2024-03-17T14:03:51;4.53;;;1.42;;
83103;SDS011;72975;48.134;11.630;2024-03-17T14:06:18;4.03;;;1.55;;
83103;SDS011;72975;48.134;11.630;2024-03-17T14:08:45;2.47;;;1.00;;
83103;SDS011;72975;48.134;11.630;2024-03-17T14:11:12;4.03;;;1.13;;
83103;SDS011;72975;48.134;11.630;2024-03-17T14:13:38;3.45;;;1.05;;
83103;SDS011;72975;48.134;11.630;2024-03-17T14:16:05;6.30;;;1.20;;
83103;SDS011;72975;48.134;11.630;2024-03-17T14:18:32;4.03;;;1.33;;
83103;SDS011;72975;48.134;11.630;2024-03-17T14:21:02;4.13;;;1.40;;
83103;SDS011;72975;48.134;11.630;2024-03-17T14:23:43;3.13;;;1.38;;
83103;SDS011;72975;48.134;11.630;2024-03-17T14:26:22;5.10;;;1.67;;
83103;SDS011;72975;48.134;11.630;2024-03-17T14:29:04;4.93;;;1.63;;
83103;SDS011;72975;48.134;11.630;2024-03-17T14:31:39;3.22;;;1.42;;
83103;SDS011;72975;48.134;11.630;2024-03-17T14:34:12;3.80;;;1.10;;
83103;SDS011;72975;48.134;11.630;2024-03-17T14:36:48;2.70;;;1.05;;
83103;SDS011;72975;48.134;11.630;2024-03-17T14:39:18;2.90;;;1.17;;
83103;SDS011;72975;48.134;11.630;2024-03-17T14:41:53;2.60;;;1.15;;
83103;SDS011;72975;48.134;11.630;2024-03-17T14:44:23;5.55;;;1.23;;
83103;SDS011;72975;48.134;11.630;2024-03-17T14:46:53;3.47;;;1.10;;
83103;SDS011;72975;48.134;11.630;2024-03-17T14:49:27;4.78;;;1.42;;
83103;SDS011;72975;48.134;11.630;2024-03-17T14:51:56;2.67;;;1.23;;
83103;SDS011;72975;48.134;11.630;2024-03-17T14:54:23;4.90;;;1.65;;
83103;SDS011;72975;48.134;11.630;2024-03-17T14:56:57;2.45;;;0.98;;
83103;SDS011;72975;48.134;11.630;2024-03-17T14:59:32;3.30;;;1.05;;
83103;SDS011;72975;48.134;11.630;2024-03-17T15:02:14;3.28;;;1.13;;
83103;SDS011;72975;48.134;11.630;2024-03-17T15:04:56;3.50;;;1.20;;
83103;SDS011;72975;48.134;11.630;2024-03-17T15:07:44;4.10;;;1.55;;
83103;SDS011;72975;48.134;11.630;2024-03-17T15:10:14;3.85;;;1.38;;
83103;SDS011;72975;48.134;11.630;2024-03-17T15:12:52;2.95;;;1.27;;
83103;SDS011;72975;48.134;11.630;2024-03-17T15:15:23;2.92;;;1.50;;
83103;SDS011;72975;48.134;11.630;2024-03-17T15:18:05;2.65;;;1.17;;
83103;SDS011;72975;48.134;11.630;2024-03-17T15:20:38;3.17;;;1.33;;
83103;SDS011;72975;48.134;11.630;2024-03-17T15:23:18;2.65;;;1.25;;
83103;SDS011;72975;48.134;11.630;2024-03-17T15:26:14;4.00;;;1.33;;
83103;SDS011;72975;48.134;11.630;2024-03-17T15:28:46;2.72;;;1.30;;
83103;SDS011;72975;48.134;11.630;2024-03-17T15:31:17;3.88;;;1.60;;
83103;SDS011;72975;48.134;11.630;2024-03-17T15:33:49;4.32;;;1.45;;
83103;SDS011;72975;48.134;11.630;2024-03-17T15:36:30;5.07;;;1.10;;
83103;SDS011;72975;48.134;11.630;2024-03-17T15:39:01;3.92;;;1.33;;
83103;SDS011;72975;48.134;11.630;2024-03-17T15:41:32;3.50;;;1.38;;
83103;SDS011;72975;48.134;11.630;2024-03-17T15:44:16;2.58;;;1.20;;
83103;SDS011;72975;48.134;11.630;2024-03-17T15:46:48;3.35;;;1.25;;
83103;SDS011;72975;48.134;11.630;2024-03-17T15:49:15;3.72;;;1.00;;
83103;SDS011;72975;48.134;11.630;2024-03-17T15:51:46;4.80;;;1.42;;
83103;SDS011;72975;48.134;11.630;2024-03-17T15:54:30;4.40;;;1.73;;
83103;SDS011;72975;48.134;11.630;2024-03-17T15:57:03;2.90;;;1.52;;
83103;SDS011;72975;48.134;11.630;2024-03-17T15:59:36;4.90;;;1.25;;
83103;SDS011;72975;48.134;11.630;2024-03-17T16:02:03;3.10;;;1.25;;
83103;SDS011;72975;48.134;11.630;2024-03-17T16:04:38;7.53;;;1.45;;
83103;SDS011;72975;48.134;11.630;2024-03-17T16:07:06;3.13;;;1.25;;
83103;SDS011;72975;48.134;11.630;2024-03-17T16:09:36;2.83;;;1.25;;
83103;SDS011;72975;48.134;11.630;2024-03-17T16:12:04;20.15;;;9.18;;
83103;SDS011;72975;48.134;11.630;2024-03-17T16:14:32;21.63;;;10.02;;
83103;SDS011;72975;48.134;11.630;2024-03-17T16:17:06;5.05;;;2.20;;
83103;SDS011;72975;48.134;11.630;2024-03-17T16:19:34;2.78;;;1.40;;
83103;SDS011;72975;48.134;11.630;2024-03-17T16:22:01;6.95;;;1.60;;
83103;SDS011;72975;48.134;11.630;2024-03-17T16:24:32;3.22;;;2.00;;
83103;SDS011;72975;48.134;11.630;2024-03-17T16:27:02;3.45;;;1.40;;
83103;SDS011;72975;48.134;11.630;2024-03-17T16:29:32;2.92;;;1.10;;
83103;SDS011;72975;48.134;11.630;2024-03-17T16:32:01;4.70;;;1.30;;
83103;SDS011;72975;48.134;11.630;2024-03-17T16:34:31;4.38;;;1.85;;
83103;SDS011;72975;48.134;11.630;2024-03-17T16:37:03;4.18;;;1.33;;
83103;SDS011;72975;48.134;11.630;2024-03-17T16:39:30;2.97;;;1.23;;
83103;SDS011;72975;48.134;11.630;2024-03-17T16:41:57;3.65;;;1.33;;
83103;SDS011;72975;48.134;11.630;2024-03-17T16:44:36;4.60;;;1.63;;
83103;SDS011;72975;48.134;11.630;2024-03-17T16:47:28;4.30;;;1.40;;
83103;SDS011;72975;48.134;11.630;2024-03-17T16:49:56;4.25;;;1.48;;
83103;SDS011;72975;48.134;11.630;2024-03-17T16:52:33;3.47;;;1.25;;
83103;SDS011;72975;48.134;11.630;2024-03-17T16:55:02;3.53;;;1.42;;
83103;SDS011;72975;48.134;11.630;2024-03-17T16:57:34;4.38;;;1.52;;
83103;SDS011;72975;48.134;11.630;2024-03-17T17:00:03;6.80;;;1.52;;
83103;SDS011;72975;48.134;11.630;2024-03-17T17:02:39;6.40;;;1.55;;
83103;SDS011;72975;48.134;11.630;2024-03-17T17:05:08;8.90;;;1.75;;
83103;SDS011;72975;48.134;11.630;2024-03-17T17:07:41;4.03;;;1.52;;
83103;SDS011;72975;48.134;11.630;2024-03-17T17:10:14;4.13;;;1.17;;
83103;SDS011;72975;48.134;11.630;2024-03-17T17:12:51;4.20;;;1.42;;
83103;SDS011;72975;48.134;11.630;2024-03-17T17:15:19;7.80;;;2.40;;
83103;SDS011;72975;48.134;11.630;2024-03-17T17:17:47;4.32;;;1.80;;
83103;SDS011;72975;48.134;11.630;2024-03-17T17:20:15;3.90;;;1.55;;
83103;SDS011;72975;48.134;11.630;2024-03-17T17:22:42;2.97;;;1.63;;
83103;SDS011;72975;48.134;11.630;2024-03-17T17:25:15;4.47;;;1.80;;
83103;SDS011;72975;48.134;11.630;2024-03-17T17:27:47;6.03;;;1.67;;
83103;SDS011;72975;48.134;11.630;2024-03-17T17:30:17;4.00;;;2.28;;
83103;SDS011;72975;48.134;11.630;2024-03-17T17:32:55;7.10;;;2.00;;
83103;SDS011;72975;48.134;11.630;2024-03-17T17:35:35;4.65;;;1.75;;
83103;SDS011;72975;48.134;11.630;2024-03-17T17:38:08;4.50;;;1.70;;
83103;SDS011;72975;48.134;11.630;2024-03-17T17:40:44;3.83;;;1.63;;
83103;SDS011;72975;48.134;11.630;2024-03-17T17:43:25;3.20;;;1.65;;
83103;SDS011;72975;48.134;11.630;2024-03-17T17:46:12;3.55;;;1.85;;
83103;SDS011;72975;48.134;11.630;2024-03-17T17:48:53;4.28;;;2.00;;
83103;SDS011;72975;48.134;11.630;2024-03-17T17:51:34;4.55;;;1.95;;
83103;SDS011;72975;48.134;11.630;2024-03-17T17:54:35;3.85;;;2.00;;
83103;SDS011;72975;48.134;11.630;2024-03-17T18:01:23;4.65;;;2.25;;
83103;SDS011;72975;48.134;11.630;2024-03-17T18:08:49;5.55;;;2.30;;
83103;SDS011;72975;48.134;11.630;2024-03-17T18:22:08;6.85;;;2.22;;
83103;SDS011;72975;48.134;11.630;2024-03-17T18:25:25;4.63;;;2.38;;
83103;SDS011;72975;48.134;11.630;2024-03-17T18:36:53;6.70;;;2.72;;
83103;SDS011;72975;48.134;11.630;2024-03-17T18:44:00;5.93;;;2.30;;
83103;SDS011;72975;48.134;11.630;2024-03-17T18:47:22;6.10;;;2.92;;
83103;SDS011;72975;48.134;11.630;2024-03-17T18:53:25;8.98;;;3.10;;
83103;SDS011;72975;48.134;11.630;2024-03-17T18:56:40;6.03;;;2.90;;
83103;SDS011;72975;48.134;11.630;2024-03-17T19:00:25;6.40;;;3.40;;
83103;SDS011;72975;48.134;11.630;2024-03-17T19:03:20;4.53;;;2.97;;
83103;SDS011;72975;48.134;11.630;2024-03-17T19:06:07;7.78;;;3.40;;
83103;SDS011;72975;48.134;11.630;2024-03-17T19:09:05;5.47;;;3.33;;
83103;SDS011;72975;48.134;11.630;2024-03-17T19:14:51;10.95;;;5.63;;
83103;SDS011;72975;48.134;11.630;2024-03-17T19:29:24;6.35;;;3.10;;
83103;SDS011;72975;48.134;11.630;2024-03-17T19:32:33;10.68;;;4.03;;
83103;SDS011;72975;48.134;11.630;2024-03-17T19:35:44;7.35;;;3.65;;
83103;SDS011;72975;48.134;11.630;2024-03-17T19:38:17;6.18;;;2.88;;
83103;SDS011;72975;48.134;11.630;2024-03-17T19:40:53;6.38;;;3.22;;
83103;SDS011;72975;48.134;11.630;2024-03-17T19:43:22;6.85;;;3.33;;
83103;SDS011;72975;48.134;11.630;2024-03-17T19:46:02;6.15;;;4.25;;
83103;SDS011;72975;48.134;11.630;2024-03-17T19:48:55;8.32;;;3.90;;
83103;SDS011;72975;48.134;11.630;2024-03-17T19:54:17;7.20;;;3.92;;
83103;SDS011;72975;48.134;11.630;2024-03-17T19:56:56;8.63;;;5.03;;
83103;SDS011;72975;48.134;11.630;2024-03-17T19:59:45;6.65;;;3.67;;
83103;SDS011;72975;48.134;11.630;2024-03-17T20:02:23;11.30;;;4.88;;
83103;SDS011;72975;48.134;11.630;2024-03-17T20:05:26;6.90;;;3.92;;
83103;SDS011;72975;48.134;11.630;2024-03-17T20:08:18;8.52;;;4.20;;
83103;SDS011;72975;48.134;11.630;2024-03-17T20:12:08;12.50;;;4.50;;
83103;SDS011;72975;48.134;11.630;2024-03-17T20:15:12;7.03;;;4.00;;
83103;SDS011;72975;48.134;11.630;2024-03-17T20:17:58;7.45;;;4.97;;
83103;SDS011;72975;48.134;11.630;2024-03-17T20:20:45;8.85;;;5.28;;
83103;SDS011;72975;48.134;11.630;2024-03-17T20:23:13;9.13;;;4.90;;
83103;SDS011;72975;48.134;11.630;2024-03-17T20:25:40;9.70;;;5.15;;
83103;SDS011;72975;48.134;11.630;2024-03-17T20:28:07;8.98;;;4.63;;
83103;SDS011;72975;48.134;11.630;2024-03-17T20:30:37;8.23;;;4.72;;
83103;SDS011;72975;48.134;11.630;2024-03-17T20:33:04;8.57;;;4.75;;
83103;SDS011;72975;48.134;11.630;2024-03-17T20:35:39;11.43;;;5.30;;
83103;SDS011;72975;48.134;11.630;2024-03-17T20:38:32;16.38;;;7.53;;
83103;SDS011;72975;48.134;11.630;2024-03-17T20:41:49;8.38;;;4.40;;
83103;SDS011;72975;48.134;11.630;2024-03-17T20:44:51;7.35;;;4.00;;
83103;SDS011;72975;48.134;11.630;2024-03-17T20:48:19;8.23;;;4.35;;
83103;SDS011;72975;48.134;11.630;2024-03-17T20:52:07;8.00;;;4.53;;
83103;SDS011;72975;48.134;11.630;2024-03-17T20:55:00;9.15;;;5.15;;
83103;SDS011;72975;48.134;11.630;2024-03-17T20:57:49;8.18;;;4.35;;
83103;SDS011;72975;48.134;11.630;2024-03-17T21:01:00;8.07;;;4.35;;
83103;SDS011;72975;48.134;11.630;2024-03-17T21:04:14;8.18;;;4.60;;
83103;SDS011;72975;48.134;11.630;2024-03-17T21:06:52;8.27;;;4.63;;
83103;SDS011;72975;48.134;11.630;2024-03-17T21:10:26;7.60;;;4.25;;
83103;SDS011;72975;48.134;11.630;2024-03-17T21:13:11;7.20;;;3.97;;
83103;SDS011;72975;48.134;11.630;2024-03-17T21:16:00;8.95;;;4.45;;
83103;SDS011;72975;48.134;11.630;2024-03-17T21:18:57;10.82;;;5.75;;
83103;SDS011;72975;48.134;11.630;2024-03-17T21:21:59;8.65;;;4.70;;
83103;SDS011;72975;48.134;11.630;2024-03-17T21:28:32;7.10;;;4.22;;
83103;SDS011;72975;48.134;11.630;2024-03-17T21:31:18;7.18;;;4.25;;
83103;SDS011;72975;48.134;11.630;2024-03-17T21:34:15;6.82;;;4.07;;
83103;SDS011;72975;48.134;11.630;2024-03-17T21:36:55;6.85;;;4.18;;
83103;SDS011;72975;48.134;11.630;2024-03-17T21:39:31;11.10;;;6.22;;
83103;SDS011;72975;48.134;11.630;2024-03-17T21:42:04;12.02;;;5.97;;
83103;SDS011;72975;48.134;11.630;2024-03-17T21:44:39;10.02;;;4.90;;
83103;SDS011;72975;48.134;11.630;2024-03-17T21:47:16;12.80;;;5.30;;
83103;SDS011;72975;48.134;11.630;2024-03-17T21:50:28;11.32;;;5.00;;
83103;SDS011;72975;48.134;11.630;2024-03-17T21:53:25;8.88;;;4.63;;
83103;SDS011;72975;48.134;11.630;2024-03-17T21:55:59;8.93;;;4.78;;
83103;SDS011;72975;48.134;11.630;2024-03-17T21:58:39;9.32;;;5.20;;
83103;SDS011;72975;48.134;11.630;2024-03-17T22:02:09;9.50;;;4.97;;
83103;SDS011;72975;48.134;11.630;2024-03-17T22:05:06;6.65;;;4.35;;
83103;SDS011;72975;48.134;11.630;2024-03-17T22:10:51;6.53;;;3.90;;
83103;SDS011;72975;48.134;11.630;2024-03-17T22:13:33;8.02;;;4.15;;
83103;SDS011;72975;48.134;11.630;2024-03-17T22:16:18;7.60;;;4.10;;
83103;SDS011;72975;48.134;11.630;2024-03-17T22:18:48;7.70;;;4.63;;
83103;SDS011;72975;48.134;11.630;2024-03-17T22:21:45;7.70;;;4.57;;
83103;SDS011;72975;48.134;11.630;2024-03-17T22:24:45;9.07;;;5.18;;
83103;SDS011;72975;48.134;11.630;2024-03-17T22:27:24;7.82;;;4.75;;
83103;SDS011;72975;48.134;11.630;2024-03-17T22:30:19;9.75;;;4.38;;
83103;SDS011;72975;48.134;11.630;2024-03-17T22:33:18;8.88;;;4.00;;
83103;SDS011;72975;48.134;11.630;2024-03-17T22:36:15;9.10;;;3.97;;
83103;SDS011;72975;48.134;11.630;2024-03-17T22:39:38;9.68;;;4.18;;
83103;SDS011;72975;48.134;11.630;2024-03-17T22:42:31;6.85;;;3.92;;
83103;SDS011;72975;48.134;11.630;2024-03-17T22:45:08;9.60;;;4.10;;
83103;SDS011;72975;48.134;11.630;2024-03-17T22:47:50;8.63;;;4.15;;
83103;SDS011;72975;48.134;11.630;2024-03-17T22:51:18;6.35;;;2.95;;
83103;SDS011;72975;48.134;11.630;2024-03-17T22:53:57;5.93;;;2.75;;
83103;SDS011;72975;48.134;11.630;2024-03-17T22:56:49;7.05;;;2.92;;
83103;SDS011;72975;48.134;11.630;2024-03-17T22:59:50;8.05;;;3.75;;
83103;SDS011;72975;48.134;11.630;2024-03-17T23:02:35;5.95;;;2.90;;
83103;SDS011;72975;48.134;11.630;2024-03-17T23:05:13;5.03;;;2.45;;
83103;SDS011;72975;48.134;11.630;2024-03-17T23:08:01;5.68;;;2.83;;
83103;SDS011;72975;48.134;11.630;2024-03-17T23:10:46;6.63;;;2.85;;
83103;SDS011;72975;48.134;11.630;2024-03-17T23:14:03;5.20;;;2.55;;
83103;SDS011;72975;48.134;11.630;2024-03-17T23:16:56;5.45;;;2.80;;
83103;SDS011;72975;48.134;11.630;2024-03-17T23:20:02;5.25;;;2.28;;
83103;SDS011;72975;48.134;11.630;2024-03-17T23:22:56;4.32;;;2.20;;
83103;SDS011;72975;48.134;11.630;2024-03-17T23:25:32;3.60;;;2.17;;
83103;SDS011;72975;48.134;11.630;2024-03-17T23:28:11;5.20;;;2.75;;
83103;SDS011;72975;48.134;11.630;2024-03-17T23:30:56;5.20;;;2.78;;
83103;SDS011;72975;48.134;11.630;2024-03-17T23:33:44;4.65;;;2.47;;
83103;SDS011;72975;48.134;11.630;2024-03-17T23:36:19;4.60;;;2.38;;
83103;SDS011;72975;48.134;11.630;2024-03-17T23:38:48;5.07;;;1.83;;
83103;SDS011;72975;48.134;11.630;2024-03-17T23:42:17;4.57;;;2.45;;
83103;SDS011;72975;48.134;11.630;2024-03-17T23:45:04;8.05;;;1.92;;
83103;SDS011;72975;48.134;11.630;2024-03-17T23:47:48;6.18;;;2.08;;
83103;SDS011;72975;48.134;11.630;2024-03-17T23:50:37;4.65;;;1.98;;
83103;SDS011;72975;48.134;11.630;2024-03-17T23:56:41;4.45;;;2.40;;
